Impacts TAF Board
For situational awareness. Not to be used for flight planning purposes.
IDs:

KBOS - Boston/Logan Intl, MA, US

Issued at 2320 UTC 09 Dec 2022
Updated at 0211 UTC 10 Dec 2022
Potential Impact None Slight Moderate High
Time0154Z 10/03Z 10/04Z 10/05Z 10/06Z 10/07Z 10/08Z 10/09Z 10/10Z 10/11Z 10/12Z 10/13Z 10/14Z 10/15Z>>
Type OBS PRVL PRVL PRVL PRVL PRVL PRVL PRVL PRVL PRVL PRVL PRVL PRVL PRVL
VIS 10 >6 >6 >6 >6 >6 >6 >6 >6 >6 >6 >6 >6 >6
CIG -- -- -- -- -- -- -- -- 35 35 35 35 35 25
Cover CLR SKC SKC SKC SKC SKC SKC SKC BKN BKN BKN BKN BKN BKN
FltCat VFR VFR VFR VFR VFR VFR VFR VFR VFR VFR VFR VFR VFR MVFR
WX -- -- -- -- -- -- -- -- -- -- -- -- -- --
WDir 350 330 330 330 330 330 330 330 10 10 10 10 10 30
WSpd 12 12 12 12 12 12 12 12 12 12 12 12 12 12
WGst -- -- -- -- -- -- -- -- -- -- -- -- -- 22
WSHgt -- -- -- -- -- -- -- -- -- -- -- -- -- --
WSDir -- -- -- -- -- -- -- -- -- -- -- -- -- --
WSSpd -- -- -- -- -- -- -- -- -- -- -- -- -- --
Raw TAF
KBOS 092320Z 1000/1106 33012KT P6SM SKC
  FM101000 01012KT P6SM BKN035
  FM101500 03012G22KT P6SM BKN025


Raw METAR
KBOS 100154Z 35012KT 10SM CLR 03/M13 A3027 RMK AO2 SLP249 T00331133
KBOS 100054Z 33010KT 10SM CLR 03/M14 A3026 RMK AO2 SLP246 T00331139
KBOS 092354Z 33011G17KT 10SM CLR 04/M14 A3025 RMK AO2 SLP242 T00391139 10083 20039 51011

METAR Board
Radar Display
Forecast Discussion
For situational awareness. Not to be used for flight planning purposes.